Atlantis — PCDT — position and weather

sailwx.info

Track history (hours):
 
Tides and Currents Weather Stations Pressure Air Temp Water Temp Dewpoint Dewpoint Depression Visibility Wind Speed Wind Dir Waves Ship Positions

Atlantis (Netherlands)

Ship's website: http://www.tallship-company.com/artemis/gb_atlantis.htm

Last reported at 2017-Jun-26 09:44 UTC. Time now 2017-Jun-27 10:25 UTC.
Position N 54°35' E 010°10'.

Length 40 m; draft 4.5 m.

Type: Sailing vessel. MMSI: 246253000.

Date/timePositionNaut miles runAvg speedWind from/ knotsBaromVisibWave heightAir tempDewpointWater temp
2017-Jun-26 09:44N 54°35' E 010°10'2 6.4
2017-Jun-26 09:23N 54°33' E 010°11'2 6.4
2017-Jun-26 09:00N 54°31' E 010°13'3 6.7
2017-Jun-26 08:31N 54°28' E 010°15'3 6.2
2017-Jun-26 08:00N 54°25' E 010°12'3 5.9
2017-Jun-26 07:30N 54°22' E 010°10'0 0.6
2017-Jun-26 06:59N 54°22' E 010°09'0 0.0
2017-Jun-26 06:30N 54°22' E 010°09'0 0.0
2017-Jun-26 06:00N 54°22' E 010°09'0 0.0
2017-Jun-26 01:15N 54°22' E 010°09'0 0.0
2017-Jun-26 01:00N 54°22' E 010°09'0 0.0
2017-Jun-26 00:30N 54°22' E 010°09'0 0.0
2017-Jun-26 00:00N 54°22' E 010°09'0 0.0
2017-Jun-25 23:30N 54°22' E 010°09'0 0.0
2017-Jun-25 23:00N 54°22' E 010°09'0 0.0
2017-Jun-25 22:30N 54°22' E 010°09'0 0.0
2017-Jun-25 22:00N 54°22' E 010°09'0 0.0
2017-Jun-25 21:30N 54°22' E 010°09'0 0.0
2017-Jun-25 21:00N 54°22' E 010°09'0 0.0
2017-Jun-25 20:31N 54°22' E 010°09'0 0.0
2017-Jun-25 20:00N 54°22' E 010°09'0 0.0
2017-Jun-25 19:30N 54°22' E 010°09'0 0.0
2017-Jun-25 19:00N 54°22' E 010°09'0 0.0
2017-Jun-25 18:30N 54°22' E 010°09'0 0.0
2017-Jun-25 18:00N 54°22' E 010°09'0 0.0
2017-Jun-25 17:30N 54°22' E 010°09'0 0.0
2017-Jun-25 17:00N 54°22' E 010°09'0 0.0
2017-Jun-25 16:30N 54°22' E 010°09'0 0.0
2017-Jun-25 16:00N 54°22' E 010°09'0 0.0
2017-Jun-25 15:30N 54°22' E 010°09'0 0.0
2017-Jun-25 15:00N 54°22' E 010°09'0 0.0
2017-Jun-25 14:30N 54°22' E 010°09'0 0.0
2017-Jun-25 13:30N 54°22' E 010°09'0 0.0
2017-Jun-25 13:00N 54°22' E 010°09'0 0.0
2017-Jun-25 12:30N 54°22' E 010°09'0 0.0
2017-Jun-25 12:00N 54°22' E 010°09'0 0.0
2017-Jun-25 11:30N 54°22' E 010°09'0 0.0
2017-Jun-25 11:00N 54°22' E 010°09'0 0.0
2017-Jun-25 10:30N 54°22' E 010°09'3 0.4
2017-Jun-25 01:06N 54°19' E 010°08'0 0.0
2017-Jun-25 01:00N 54°19' E 010°08'0 0.0
2017-Jun-25 00:12N 54°19' E 010°08'0 0.0
2017-Jun-24 23:48N 54°19' E 010°08'0 0.0
2017-Jun-24 23:24N 54°19' E 010°08'0 0.0
2017-Jun-24 22:54N 54°19' E 010°08'0 0.0
2017-Jun-24 22:27N 54°19' E 010°08'0 0.0
2017-Jun-24 22:00N 54°19' E 010°08'0 0.0
2017-Jun-24 21:24N 54°19' E 010°08'0 0.0
2017-Jun-24 20:45N 54°19' E 010°08'0 0.0
2017-Jun-24 20:24N 54°19' E 010°08'0 0.0
2017-Jun-24 20:00N 54°19' E 010°08'0 0.0
2017-Jun-24 19:30N 54°19' E 010°08'0 0.0
2017-Jun-24 19:00N 54°19' E 010°08'0 0.0
2017-Jun-24 18:30N 54°19' E 010°08'0 0.0
2017-Jun-24 17:49N 54°19' E 010°08'0 0.0
2017-Jun-24 17:30N 54°19' E 010°08'0 0.0
2017-Jun-24 17:00N 54°19' E 010°08'0 0.0
2017-Jun-24 16:30N 54°19' E 010°08'0 0.0
2017-Jun-24 16:01N 54°19' E 010°08'0 0.0
2017-Jun-24 15:30N 54°19' E 010°08'0 0.0
2017-Jun-24 15:00N 54°19' E 010°08'0 0.3
2017-Jun-24 14:00N 54°19' E 010°08'2 3.7
2017-Jun-24 13:30N 54°21' E 010°10'2 4.1
2017-Jun-24 12:59N 54°23' E 010°11'  
2017-Jun-21 12:08N 54°25' E 010°12'0 0.3
2017-Jun-21 11:24N 54°25' E 010°12'0 0.0
2017-Jun-21 10:54N 54°25' E 010°12'0 0.0
2017-Jun-21 10:26N 54°25' E 010°12'1 3.0
2017-Jun-21 10:00N 54°23' E 010°12'2 4.2
2017-Jun-21 09:30N 54°22' E 010°10'2 4.8
2017-Jun-21 09:00N 54°19' E 010°09'1 1.3
2017-Jun-21 08:30N 54°19' E 010°08'0 0.1
2017-Jun-21 08:00N 54°19' E 010°08'0 0.0
2017-Jun-21 07:30N 54°19' E 010°08'0 0.0
2017-Jun-21 07:00N 54°19' E 010°08'0 0.0
2017-Jun-21 06:30N 54°19' E 010°08'0 0.0
2017-Jun-21 05:59N 54°19' E 010°08'0 0.0
2017-Jun-21 05:30N 54°19' E 010°08'0 0.1
2017-Jun-21 05:00N 54°19' E 010°08'0 0.1
2017-Jun-21 04:30N 54°19' E 010°08'0 0.2
2017-Jun-21 04:00N 54°19' E 010°08'0 0.2
2017-Jun-21 03:30N 54°19' E 010°08'0 0.0
2017-Jun-21 03:00N 54°19' E 010°08'0 0.0
2017-Jun-21 02:30N 54°19' E 010°08'0 0.0
2017-Jun-21 02:00N 54°19' E 010°08'0 0.0
2017-Jun-21 01:30N 54°19' E 010°08'0 0.0
2017-Jun-21 01:00N 54°19' E 010°08'0 0.0
2017-Jun-21 00:30N 54°19' E 010°08'0 0.0
2017-Jun-21 00:00N 54°19' E 010°08'0 0.0
2017-Jun-20 23:30N 54°19' E 010°08'0 0.0
2017-Jun-20 23:00N 54°19' E 010°08'0 0.0
2017-Jun-20 22:30N 54°19' E 010°08'0 0.0
2017-Jun-20 22:00N 54°19' E 010°08'0 0.0
2017-Jun-20 21:31N 54°19' E 010°08'0 0.0
2017-Jun-20 21:00N 54°19' E 010°08'0 0.0
2017-Jun-20 20:30N 54°19' E 010°08'0 0.0
2017-Jun-20 20:00N 54°19' E 010°08'0 0.0
2017-Jun-20 19:30N 54°19' E 010°08'0 0.0
2017-Jun-20 19:00N 54°19' E 010°08'0 0.0
2017-Jun-20 18:30N 54°19' E 010°08'0 0.0
2017-Jun-20 18:00N 54°19' E 010°08'0 0.0
2017-Jun-20 17:29N 54°19' E 010°08'0 0.0
2017-Jun-20 17:00N 54°19' E 010°08'0 0.0
2017-Jun-20 16:30N 54°19' E 010°08'  
Track history (hours):
 
Tides and Currents Weather Stations Pressure Air Temp Water Temp Dewpoint Dewpoint Depression Visibility Wind Speed Wind Dir Waves Ship Positions

Atlantis (Netherlands)

Ship's website: http://www.tallship-company.com/artemis/gb_atlantis.htm

Last reported at 2017-Jun-26 09:44 UTC. Time now 2017-Jun-27 10:25 UTC.
Position N 54°35' E 010°10'.

Length 40 m; draft 4.5 m.

Type: Sailing vessel. MMSI: 246253000.

Date/timePositionNaut miles runAvg speedWind from/ knotsBaromVisibWave heightAir tempDewpointWater temp
2017-Jun-26 09:44N 54°35' E 010°10'2 6.4
2017-Jun-26 09:23N 54°33' E 010°11'2 6.4
2017-Jun-26 09:00N 54°31' E 010°13'3 6.7
2017-Jun-26 08:31N 54°28' E 010°15'3 6.2
2017-Jun-26 08:00N 54°25' E 010°12'3 5.9
2017-Jun-26 07:30N 54°22' E 010°10'0 0.6
2017-Jun-26 06:59N 54°22' E 010°09'0 0.0
2017-Jun-26 06:30N 54°22' E 010°09'0 0.0
2017-Jun-26 06:00N 54°22' E 010°09'0 0.0
2017-Jun-26 01:15N 54°22' E 010°09'0 0.0
2017-Jun-26 01:00N 54°22' E 010°09'0 0.0
2017-Jun-26 00:30N 54°22' E 010°09'0 0.0
2017-Jun-26 00:00N 54°22' E 010°09'0 0.0
2017-Jun-25 23:30N 54°22' E 010°09'0 0.0
2017-Jun-25 23:00N 54°22' E 010°09'0 0.0
2017-Jun-25 22:30N 54°22' E 010°09'0 0.0
2017-Jun-25 22:00N 54°22' E 010°09'0 0.0
2017-Jun-25 21:30N 54°22' E 010°09'0 0.0
2017-Jun-25 21:00N 54°22' E 010°09'0 0.0
2017-Jun-25 20:31N 54°22' E 010°09'0 0.0
2017-Jun-25 20:00N 54°22' E 010°09'0 0.0
2017-Jun-25 19:30N 54°22' E 010°09'0 0.0
2017-Jun-25 19:00N 54°22' E 010°09'0 0.0
2017-Jun-25 18:30N 54°22' E 010°09'0 0.0
2017-Jun-25 18:00N 54°22' E 010°09'0 0.0
2017-Jun-25 17:30N 54°22' E 010°09'0 0.0
2017-Jun-25 17:00N 54°22' E 010°09'0 0.0
2017-Jun-25 16:30N 54°22' E 010°09'0 0.0
2017-Jun-25 16:00N 54°22' E 010°09'0 0.0
2017-Jun-25 15:30N 54°22' E 010°09'0 0.0
2017-Jun-25 15:00N 54°22' E 010°09'0 0.0
2017-Jun-25 14:30N 54°22' E 010°09'0 0.0
2017-Jun-25 13:30N 54°22' E 010°09'0 0.0
2017-Jun-25 13:00N 54°22' E 010°09'0 0.0
2017-Jun-25 12:30N 54°22' E 010°09'0 0.0
2017-Jun-25 12:00N 54°22' E 010°09'0 0.0
2017-Jun-25 11:30N 54°22' E 010°09'0 0.0
2017-Jun-25 11:00N 54°22' E 010°09'0 0.0
2017-Jun-25 10:30N 54°22' E 010°09'3 0.4
2017-Jun-25 01:06N 54°19' E 010°08'0 0.0
2017-Jun-25 01:00N 54°19' E 010°08'0 0.0
2017-Jun-25 00:12N 54°19' E 010°08'0 0.0
2017-Jun-24 23:48N 54°19' E 010°08'0 0.0
2017-Jun-24 23:24N 54°19' E 010°08'0 0.0
2017-Jun-24 22:54N 54°19' E 010°08'0 0.0
2017-Jun-24 22:27N 54°19' E 010°08'0 0.0
2017-Jun-24 22:00N 54°19' E 010°08'0 0.0
2017-Jun-24 21:24N 54°19' E 010°08'0 0.0
2017-Jun-24 20:45N 54°19' E 010°08'0 0.0
2017-Jun-24 20:24N 54°19' E 010°08'0 0.0
2017-Jun-24 20:00N 54°19' E 010°08'0 0.0
2017-Jun-24 19:30N 54°19' E 010°08'0 0.0
2017-Jun-24 19:00N 54°19' E 010°08'0 0.0
2017-Jun-24 18:30N 54°19' E 010°08'0 0.0
2017-Jun-24 17:49N 54°19' E 010°08'0 0.0
2017-Jun-24 17:30N 54°19' E 010°08'0 0.0
2017-Jun-24 17:00N 54°19' E 010°08'0 0.0
2017-Jun-24 16:30N 54°19' E 010°08'0 0.0
2017-Jun-24 16:01N 54°19' E 010°08'0 0.0
2017-Jun-24 15:30N 54°19' E 010°08'0 0.0
2017-Jun-24 15:00N 54°19' E 010°08'0 0.3
2017-Jun-24 14:00N 54°19' E 010°08'2 3.7
2017-Jun-24 13:30N 54°21' E 010°10'2 4.1
2017-Jun-24 12:59N 54°23' E 010°11'  
2017-Jun-21 12:08N 54°25' E 010°12'0 0.3
2017-Jun-21 11:24N 54°25' E 010°12'0 0.0
2017-Jun-21 10:54N 54°25' E 010°12'0 0.0
2017-Jun-21 10:26N 54°25' E 010°12'1 3.0
2017-Jun-21 10:00N 54°23' E 010°12'2 4.2
2017-Jun-21 09:30N 54°22' E 010°10'2 4.8
2017-Jun-21 09:00N 54°19' E 010°09'1 1.3
2017-Jun-21 08:30N 54°19' E 010°08'0 0.1
2017-Jun-21 08:00N 54°19' E 010°08'0 0.0
2017-Jun-21 07:30N 54°19' E 010°08'0 0.0
2017-Jun-21 07:00N 54°19' E 010°08'0 0.0
2017-Jun-21 06:30N 54°19' E 010°08'0 0.0
2017-Jun-21 05:59N 54°19' E 010°08'0 0.0
2017-Jun-21 05:30N 54°19' E 010°08'0 0.1
2017-Jun-21 05:00N 54°19' E 010°08'0 0.1
2017-Jun-21 04:30N 54°19' E 010°08'0 0.2
2017-Jun-21 04:00N 54°19' E 010°08'0 0.2
2017-Jun-21 03:30N 54°19' E 010°08'0 0.0
2017-Jun-21 03:00N 54°19' E 010°08'0 0.0
2017-Jun-21 02:30N 54°19' E 010°08'0 0.0
2017-Jun-21 02:00N 54°19' E 010°08'0 0.0
2017-Jun-21 01:30N 54°19' E 010°08'0 0.0
2017-Jun-21 01:00N 54°19' E 010°08'0 0.0
2017-Jun-21 00:30N 54°19' E 010°08'0 0.0
2017-Jun-21 00:00N 54°19' E 010°08'0 0.0
2017-Jun-20 23:30N 54°19' E 010°08'0 0.0
2017-Jun-20 23:00N 54°19' E 010°08'0 0.0
2017-Jun-20 22:30N 54°19' E 010°08'0 0.0
2017-Jun-20 22:00N 54°19' E 010°08'0 0.0
2017-Jun-20 21:31N 54°19' E 010°08'0 0.0
2017-Jun-20 21:00N 54°19' E 010°08'0 0.0
2017-Jun-20 20:30N 54°19' E 010°08'0 0.0
2017-Jun-20 20:00N 54°19' E 010°08'0 0.0
2017-Jun-20 19:30N 54°19' E 010°08'0 0.0
2017-Jun-20 19:00N 54°19' E 010°08'0 0.0
2017-Jun-20 18:30N 54°19' E 010°08'0 0.0
2017-Jun-20 18:00N 54°19' E 010°08'0 0.0
2017-Jun-20 17:29N 54°19' E 010°08'0 0.0
2017-Jun-20 17:00N 54°19' E 010°08'0 0.0
2017-Jun-20 16:30N 54°19' E 010°08'  

Dump ship's entire track history